createdAt,value
2023-05-10T00:00:22.266Z,3183.00
2023-05-10T00:01:22.324Z,3157.00
2023-05-10T00:02:22.415Z,3197.00
2023-05-10T00:03:22.381Z,3176.00
2023-05-10T00:04:22.436Z,3173.00
2023-05-10T00:05:22.383Z,3154.00
2023-05-10T00:06:22.414Z,3154.00
2023-05-10T00:07:22.425Z,3163.00
2023-05-10T00:08:22.469Z,3173.00
2023-05-10T00:09:22.467Z,3167.00
2023-05-10T00:10:22.472Z,3190.00
2023-05-10T00:11:23.269Z,3192.00
2023-05-10T00:12:22.527Z,3179.00
2023-05-10T00:13:22.601Z,3175.00
2023-05-10T00:14:22.566Z,3208.00
2023-05-10T00:15:22.579Z,3217.00
2023-05-10T00:16:22.750Z,3240.00
2023-05-10T00:17:22.591Z,3226.00
2023-05-10T00:18:22.630Z,3276.00
2023-05-10T00:19:22.697Z,3254.00
2023-05-10T00:20:22.692Z,3248.00
2023-05-10T00:21:22.686Z,3254.00
2023-05-10T00:22:22.745Z,3239.00
2023-05-10T00:23:22.746Z,3246.00
2023-05-10T00:24:22.778Z,3259.00
2023-05-10T00:25:22.845Z,3244.00
2023-05-10T00:26:22.800Z,3267.00
2023-05-10T00:27:22.820Z,3246.00
2023-05-10T00:28:22.879Z,3264.00
2023-05-10T00:29:22.882Z,3268.00
2023-05-10T00:30:22.884Z,3248.00
2023-05-10T00:31:22.891Z,3261.00
2023-05-10T00:32:22.978Z,3286.00
2023-05-10T00:33:22.947Z,3266.00
2023-05-10T00:34:22.934Z,3259.00
2023-05-10T00:35:22.993Z,3239.00
2023-05-10T00:36:23.000Z,3252.00
2023-05-10T00:37:23.007Z,3275.00
2023-05-10T00:38:23.010Z,3269.00
2023-05-10T00:39:23.055Z,3261.00
2023-05-10T00:40:23.076Z,3285.00
2023-05-10T00:41:23.081Z,3270.00
2023-05-10T00:42:23.097Z,3279.00
2023-05-10T00:43:23.096Z,3266.00
2023-05-10T00:44:23.106Z,3255.00
2023-05-10T00:45:23.152Z,3272.00
2023-05-10T00:46:23.259Z,3262.00
2023-05-10T00:47:23.210Z,3276.00
2023-05-10T00:48:23.221Z,3274.00
2023-05-10T00:49:23.220Z,3274.00
2023-05-10T00:50:23.241Z,3275.00
2023-05-10T00:51:23.264Z,3267.00
2023-05-10T00:52:23.257Z,3263.00
2023-05-10T00:53:23.293Z,3274.00
2023-05-10T00:54:23.301Z,3264.00
2023-05-10T00:55:23.293Z,3269.00
2023-05-10T00:56:23.305Z,3283.00
2023-05-10T00:57:23.351Z,3288.00
2023-05-10T00:58:23.367Z,3284.00
2023-05-10T00:59:23.427Z,3289.00
2023-05-10T01:00:23.455Z,3265.00
2023-05-10T01:01:23.529Z,3275.00
2023-05-10T01:02:23.659Z,3275.00
2023-05-10T01:03:23.542Z,3260.00
2023-05-10T01:04:23.529Z,3273.00
2023-05-10T01:05:23.668Z,3288.00
2023-05-10T01:06:23.604Z,3267.00
2023-05-10T01:07:23.631Z,3284.00
2023-05-10T01:08:23.707Z,3271.00
2023-05-10T01:09:23.740Z,3283.00
2023-05-10T01:10:23.745Z,3263.00
2023-05-10T01:11:23.814Z,3271.00
2023-05-10T01:12:23.938Z,3274.00
2023-05-10T01:13:23.877Z,3276.00
2023-05-10T01:14:23.879Z,3252.00
2023-05-10T01:15:23.930Z,3280.00
2023-05-10T01:16:23.983Z,3271.00
2023-05-10T01:17:23.989Z,3256.00
2023-05-10T01:18:23.941Z,3268.00
2023-05-10T01:19:23.946Z,3262.00
2023-05-10T01:20:24.014Z,3275.00
2023-05-10T01:21:24.048Z,3273.00
2023-05-10T01:22:24.038Z,3265.00
2023-05-10T01:23:24.075Z,3276.00
2023-05-10T01:24:24.078Z,3256.00
2023-05-10T01:25:24.114Z,3268.00
2023-05-10T01:26:24.143Z,3230.00
2023-05-10T01:27:24.157Z,3271.00
2023-05-10T01:28:24.220Z,3273.00
2023-05-10T01:29:24.773Z,3272.00
2023-05-10T01:30:24.410Z,3289.00
2023-05-10T01:31:24.310Z,3286.00
2023-05-10T01:32:24.309Z,3270.00
2023-05-10T01:33:24.308Z,3282.00
2023-05-10T01:34:24.316Z,3267.00
2023-05-10T01:35:24.316Z,3276.00
2023-05-10T01:36:24.326Z,3282.00
2023-05-10T01:37:24.425Z,3273.00
2023-05-10T01:38:24.356Z,3293.00
2023-05-10T01:39:24.357Z,3289.00
2023-05-10T01:40:24.397Z,3312.00
2023-05-10T01:41:24.421Z,3306.00
2023-05-10T01:42:24.424Z,3292.00
2023-05-10T01:43:24.466Z,3286.00
2023-05-10T01:44:24.464Z,3300.00
2023-05-10T01:45:24.475Z,3308.00
2023-05-10T01:46:24.554Z,3310.00
2023-05-10T01:47:24.570Z,3302.00
2023-05-10T01:48:24.533Z,3304.00
2023-05-10T01:49:24.527Z,3286.00
2023-05-10T01:50:24.571Z,3311.00
2023-05-10T01:51:24.572Z,3302.00
2023-05-10T01:52:24.713Z,3304.00
2023-05-10T01:53:24.606Z,3302.00
2023-05-10T01:54:24.599Z,3330.00
2023-05-10T01:55:24.627Z,3312.00
2023-05-10T01:56:24.645Z,3305.00
2023-05-10T01:57:24.669Z,3302.00
2023-05-10T01:58:24.712Z,3305.00
2023-05-10T01:59:24.699Z,3325.00
2023-05-10T02:00:24.745Z,3316.00
2023-05-10T02:01:24.770Z,3310.00
2023-05-10T02:02:24.848Z,3327.00
2023-05-10T02:03:24.838Z,3326.00
2023-05-10T02:04:24.779Z,3320.00
2023-05-10T02:05:24.841Z,3306.00
2023-05-10T02:06:24.840Z,3333.00
2023-05-10T02:07:24.832Z,3318.00
2023-05-10T02:08:24.869Z,3315.00
2023-05-10T02:09:24.882Z,3304.00
2023-05-10T02:10:24.896Z,3334.00
2023-05-10T02:11:24.897Z,3328.00
2023-05-10T02:12:24.944Z,3351.00
2023-05-10T02:13:25.037Z,3358.00
2023-05-10T02:14:24.950Z,3340.00
2023-05-10T02:15:24.975Z,3344.00
2023-05-10T02:16:25.074Z,3339.00
2023-05-10T02:17:25.057Z,3339.00
2023-05-10T02:18:25.039Z,3331.00
2023-05-10T02:19:25.051Z,3318.00
2023-05-10T02:20:25.094Z,3300.00
2023-05-10T02:21:25.069Z,3326.00
2023-05-10T02:22:25.108Z,3339.00
2023-05-10T02:23:25.122Z,3323.00
2023-05-10T02:24:25.122Z,3336.00
2023-05-10T02:25:25.178Z,3334.00
2023-05-10T02:26:25.187Z,3327.00
2023-05-10T02:27:25.211Z,3325.00
2023-05-10T02:28:25.214Z,3305.00
2023-05-10T02:29:25.218Z,3310.00
2023-05-10T02:30:25.232Z,3326.00
2023-05-10T02:31:25.246Z,3314.00
2023-05-10T02:32:25.288Z,3303.00
2023-05-10T02:33:25.282Z,3310.00
2023-05-10T02:34:25.307Z,3294.00
2023-05-10T02:35:25.312Z,3279.00
2023-05-10T02:36:25.335Z,3267.00
2023-05-10T02:37:25.355Z,3269.00
2023-05-10T02:38:25.344Z,3263.00
2023-05-10T02:39:25.381Z,3247.00
2023-05-10T02:40:27.429Z,3264.00
2023-05-10T02:41:25.386Z,3257.00
2023-05-10T02:42:25.397Z,3257.00
2023-05-10T02:43:25.421Z,3268.00
2023-05-10T02:44:25.415Z,3266.00
2023-05-10T02:45:25.403Z,3229.00
2023-05-10T02:46:25.412Z,3214.00
2023-05-10T02:47:25.396Z,3236.00
2023-05-10T02:48:25.385Z,3218.00
2023-05-10T02:49:25.358Z,3190.00
2023-05-10T02:50:25.362Z,3189.00
2023-05-10T02:51:25.354Z,3208.00
2023-05-10T02:52:25.361Z,3206.00
2023-05-10T02:53:25.355Z,3221.00
2023-05-10T02:54:25.369Z,3225.00
2023-05-10T02:55:25.347Z,3227.00
2023-05-10T02:56:25.342Z,3197.00
2023-05-10T02:57:25.331Z,3190.00
2023-05-10T02:58:25.353Z,3188.00
2023-05-10T02:59:25.310Z,3185.00
2023-05-10T03:00:25.318Z,3191.00
2023-05-10T03:01:25.390Z,3183.00
2023-05-10T03:02:25.458Z,3173.00
2023-05-10T03:03:25.305Z,3184.00
2023-05-10T03:04:25.322Z,3175.00
2023-05-10T03:05:25.308Z,3175.00
2023-05-10T03:06:25.311Z,3162.00
2023-05-10T03:07:25.302Z,3175.00
2023-05-10T03:08:25.302Z,3169.00
2023-05-10T03:09:25.272Z,3178.00
2023-05-10T03:10:25.304Z,3173.00
2023-05-10T03:11:25.268Z,3169.00
2023-05-10T03:12:25.293Z,3161.00
2023-05-10T03:13:25.310Z,3173.00
2023-05-10T03:14:25.272Z,3167.00
2023-05-10T03:15:25.282Z,3145.00
2023-05-10T03:16:25.362Z,3156.00
2023-05-10T03:17:25.284Z,3136.00
2023-05-10T03:18:25.280Z,3134.00
2023-05-10T03:19:25.280Z,3149.00
2023-05-10T03:20:25.291Z,3135.00
2023-05-10T03:21:25.240Z,3147.00
2023-05-10T03:22:25.268Z,3167.00
2023-05-10T03:23:25.257Z,3153.00
2023-05-10T03:24:25.276Z,3139.00
2023-05-10T03:25:25.302Z,3149.00
2023-05-10T03:26:25.258Z,3141.00
2023-05-10T03:27:25.259Z,3147.00
2023-05-10T03:28:25.251Z,3154.00
2023-05-10T03:29:25.244Z,3158.00
2023-05-10T03:30:25.249Z,3120.00
2023-05-10T03:31:25.256Z,3128.00
2023-05-10T03:32:25.240Z,3111.00
2023-05-10T03:33:25.227Z,3145.00
2023-05-10T03:34:25.241Z,3126.00
2023-05-10T03:35:25.224Z,3126.00
2023-05-10T03:36:25.216Z,3104.00
2023-05-10T03:37:25.239Z,3149.00
2023-05-10T03:38:25.200Z,3146.00
2023-05-10T03:39:25.159Z,3148.00
2023-05-10T03:40:25.194Z,3144.00
2023-05-10T03:41:25.144Z,3124.00
2023-05-10T03:42:25.161Z,3110.00
2023-05-10T03:43:25.165Z,3101.00
2023-05-10T03:44:25.130Z,3091.00
2023-05-10T03:45:25.124Z,3100.00
2023-05-10T03:46:25.676Z,3110.00
2023-05-10T03:47:25.333Z,3119.00
2023-05-10T03:48:25.124Z,3107.00
2023-05-10T03:49:25.110Z,3103.00
2023-05-10T03:50:25.155Z,3090.00
2023-05-10T03:51:25.122Z,3100.00
2023-05-10T03:52:25.124Z,3084.00
2023-05-10T03:53:25.070Z,3096.00
2023-05-10T03:54:25.116Z,3073.00
2023-05-10T03:55:25.086Z,3069.00
2023-05-10T03:56:25.079Z,3079.00
2023-05-10T03:57:25.072Z,3081.00
2023-05-10T03:58:25.099Z,3039.00
2023-05-10T03:59:25.081Z,3047.00
2023-05-10T04:00:25.052Z,3058.00
2023-05-10T04:01:25.080Z,3047.00
2023-05-10T04:02:25.224Z,3058.00
2023-05-10T04:03:25.114Z,3039.00
2023-05-10T04:04:25.027Z,3035.00
2023-05-10T04:05:25.030Z,3028.00
2023-05-10T04:06:25.133Z,3042.00
2023-05-10T04:07:25.019Z,3053.00
2023-05-10T04:08:25.028Z,3033.00
2023-05-10T04:09:25.036Z,3046.00
2023-05-10T04:10:25.033Z,3051.00
2023-05-10T04:11:25.088Z,3046.00
2023-05-10T04:12:25.078Z,3011.00
2023-05-10T04:13:25.201Z,3033.00
2023-05-10T04:14:25.128Z,3037.00
2023-05-10T04:15:25.115Z,3014.00
2023-05-10T04:16:25.182Z,3013.00
2023-05-10T04:17:25.201Z,2986.00
2023-05-10T04:18:25.352Z,3000.00
2023-05-10T04:19:25.545Z,3001.00
2023-05-10T04:20:25.421Z,3013.00
2023-05-10T04:21:25.262Z,3003.00
2023-05-10T04:22:25.293Z,3002.00
2023-05-10T04:23:25.354Z,2986.00
2023-05-10T04:24:25.371Z,3001.00
2023-05-10T04:25:25.407Z,2975.00
2023-05-10T04:26:25.427Z,3010.00
2023-05-10T04:27:25.436Z,2995.00
2023-05-10T04:28:25.459Z,2990.00
2023-05-10T04:29:25.467Z,2993.00
2023-05-10T04:30:25.493Z,2984.00
2023-05-10T04:31:25.712Z,2965.00
2023-05-10T04:32:25.585Z,2974.00
2023-05-10T04:33:25.605Z,2963.00
2023-05-10T04:34:25.584Z,2960.00
2023-05-10T04:35:25.582Z,2961.00
2023-05-10T04:36:25.598Z,2958.00
2023-05-10T04:37:25.628Z,2946.00
2023-05-10T04:38:25.640Z,2934.00
2023-05-10T04:39:25.701Z,2909.00
2023-05-10T04:40:25.680Z,2930.00
2023-05-10T04:41:25.698Z,2911.00
2023-05-10T04:42:25.705Z,2901.00
2023-05-10T04:43:25.714Z,2893.00
2023-05-10T04:44:25.750Z,2870.00
2023-05-10T04:45:25.794Z,2900.00
2023-05-10T04:46:25.880Z,2881.00
2023-05-10T04:47:25.898Z,2873.00
2023-05-10T04:48:25.870Z,2884.00
2023-05-10T04:49:25.856Z,2890.00
2023-05-10T04:50:25.899Z,2902.00
2023-05-10T04:51:25.901Z,2898.00
2023-05-10T04:52:25.923Z,2886.00
2023-05-10T04:53:25.953Z,2896.00
2023-05-10T04:54:25.952Z,2909.00
2023-05-10T04:55:25.966Z,2885.00
2023-05-10T04:56:25.985Z,2894.00
2023-05-10T04:57:26.011Z,2881.00
2023-05-10T04:58:26.048Z,2888.00
2023-05-10T04:59:26.031Z,2882.00
2023-05-10T05:00:33.072Z,2884.00
2023-05-10T05:01:26.144Z,2887.00
2023-05-10T05:02:26.119Z,2889.00
2023-05-10T05:03:26.119Z,2902.00
2023-05-10T05:04:26.042Z,2917.00
2023-05-10T05:05:26.049Z,2935.00
2023-05-10T05:06:26.073Z,2944.00
2023-05-10T05:07:25.989Z,2942.00
2023-05-10T05:08:25.983Z,2934.00
2023-05-10T05:09:25.987Z,2934.00
2023-05-10T05:10:25.976Z,2914.00
2023-05-10T05:11:26.023Z,2931.00
2023-05-10T05:12:25.996Z,2893.00
2023-05-10T05:13:26.090Z,2890.00
2023-05-10T05:14:25.937Z,2885.00
2023-05-10T05:15:25.935Z,2901.00
2023-05-10T05:16:26.004Z,2897.00
2023-05-10T05:17:25.943Z,2917.00
2023-05-10T05:18:25.921Z,2897.00
2023-05-10T05:19:25.902Z,2893.00
2023-05-10T05:20:25.894Z,2827.00
2023-05-10T05:21:25.911Z,2620.00
2023-05-10T05:22:25.909Z,2449.00
2023-05-10T05:23:25.923Z,2398.00
2023-05-10T05:24:25.900Z,2412.00
2023-05-10T05:25:25.853Z,2389.00
2023-05-10T05:26:25.886Z,2375.00
2023-05-10T05:27:25.867Z,2350.00
2023-05-10T05:28:25.878Z,2373.00
2023-05-10T05:29:25.893Z,2448.00
2023-05-10T05:30:25.948Z,2550.00
2023-05-10T05:31:25.962Z,2516.00
2023-05-10T05:32:25.978Z,2495.00
2023-05-10T05:33:25.963Z,2439.00
2023-05-10T05:34:26.420Z,2454.00
2023-05-10T05:35:25.980Z,2487.00
2023-05-10T05:36:26.024Z,2511.00
2023-05-10T05:37:26.012Z,2607.00
2023-05-10T05:38:26.027Z,2617.00
2023-05-10T05:39:26.487Z,2671.00
2023-05-10T05:40:26.080Z,2780.00
2023-05-10T05:41:26.082Z,2799.00
2023-05-10T05:42:26.204Z,2779.00
2023-05-10T05:43:26.100Z,2811.00
2023-05-10T05:44:26.418Z,2925.00
2023-05-10T05:45:33.234Z,2919.00
2023-05-10T05:46:26.217Z,2920.00
2023-05-10T05:47:26.243Z,2927.00
2023-05-10T05:48:26.216Z,2935.00
2023-05-10T05:49:26.185Z,2972.00
2023-05-10T05:50:26.223Z,3023.00
2023-05-10T05:51:26.228Z,3049.00
2023-05-10T05:52:26.212Z,3058.00
2023-05-10T05:53:26.232Z,3079.00
2023-05-10T05:54:26.443Z,3057.00
2023-05-10T05:55:26.261Z,3060.00
2023-05-10T05:56:26.229Z,3069.00
2023-05-10T05:57:26.261Z,3068.00
2023-05-10T05:58:26.254Z,3128.00
2023-05-10T05:59:26.433Z,3126.00
2023-05-10T06:00:26.391Z,3026.00
2023-05-10T06:01:26.251Z,3047.00
2023-05-10T06:02:26.337Z,2930.00
2023-05-10T06:03:26.399Z,2846.00
2023-05-10T06:04:26.388Z,2875.00
2023-05-10T06:05:26.236Z,2902.00
2023-05-10T06:06:26.273Z,3013.00
2023-05-10T06:07:26.297Z,3101.00
2023-05-10T06:08:26.259Z,3157.00
2023-05-10T06:09:26.453Z,3202.00
2023-05-10T06:10:26.241Z,3262.00
2023-05-10T06:11:26.253Z,3281.00
2023-05-10T06:12:26.277Z,3324.00
2023-05-10T06:13:26.302Z,3335.00
2023-05-10T06:14:26.208Z,3394.00
2023-05-10T06:15:26.234Z,3387.00
2023-05-10T06:16:26.285Z,3417.00
2023-05-10T06:17:26.246Z,3460.00
2023-05-10T06:18:26.184Z,3492.00
2023-05-10T06:19:26.217Z,3520.00
2023-05-10T06:20:26.215Z,3521.00
2023-05-10T06:21:26.192Z,3539.00
2023-05-10T06:22:26.186Z,3543.00
2023-05-10T06:23:26.165Z,3547.00
2023-05-10T06:24:26.174Z,3562.00
2023-05-10T06:25:26.210Z,3584.00
2023-05-10T06:26:26.237Z,3604.00
2023-05-10T06:27:26.277Z,3609.00
2023-05-10T06:28:26.258Z,3624.00
2023-05-10T06:29:26.311Z,3629.00
2023-05-10T06:30:26.397Z,3632.00
2023-05-10T06:31:26.417Z,3667.00
2023-05-10T06:32:26.472Z,3679.00
2023-05-10T06:33:26.469Z,3672.00
2023-05-10T06:34:26.555Z,3689.00
2023-05-10T06:35:26.552Z,3700.00
2023-05-10T06:36:26.597Z,3715.00
2023-05-10T06:37:26.635Z,3575.00
2023-05-10T06:38:26.643Z,3274.00
2023-05-10T06:39:26.649Z,3146.00
2023-05-10T06:40:26.733Z,2993.00
2023-05-10T06:41:26.709Z,3031.00
2023-05-10T06:42:26.707Z,3173.00
2023-05-10T06:43:26.742Z,3285.00
2023-05-10T06:44:26.736Z,3360.00
2023-05-10T06:45:26.757Z,3417.00
2023-05-10T06:46:26.854Z,3483.00
2023-05-10T06:47:26.914Z,3544.00
2023-05-10T06:48:27.120Z,3551.00
2023-05-10T06:49:26.831Z,3561.00
2023-05-10T06:50:26.886Z,3593.00
2023-05-10T06:51:26.941Z,3576.00
2023-05-10T06:52:26.985Z,3585.00
2023-05-10T06:53:27.004Z,3585.00
2023-05-10T06:54:27.098Z,3602.00
2023-05-10T06:55:27.125Z,3634.00
2023-05-10T06:56:27.146Z,3626.00
2023-05-10T06:57:31.757Z,3649.00
2023-05-10T06:58:28.170Z,3651.00
2023-05-10T06:59:27.184Z,3653.00
2023-05-10T07:00:27.194Z,3648.00
2023-05-10T07:01:27.151Z,3658.00
2023-05-10T07:02:27.243Z,3670.00
2023-05-10T07:03:27.106Z,3696.00
2023-05-10T07:04:27.376Z,3688.00
2023-05-10T07:05:27.096Z,3688.00
2023-05-10T07:06:33.503Z,3676.00
2023-05-10T07:07:28.061Z,3678.00
2023-05-10T07:08:27.045Z,3682.00
2023-05-10T07:09:27.018Z,3682.00
2023-05-10T07:10:27.382Z,3685.00
2023-05-10T07:11:26.958Z,3717.00
2023-05-10T07:12:27.038Z,3750.00
2023-05-10T07:13:26.964Z,3556.00
2023-05-10T07:14:26.961Z,3416.00
2023-05-10T07:15:26.926Z,3371.00
2023-05-10T07:16:26.931Z,3224.00
2023-05-10T07:17:27.039Z,3139.00
2023-05-10T07:18:26.990Z,3079.00
2023-05-10T07:19:26.884Z,3010.00
2023-05-10T07:20:27.053Z,2982.00
2023-05-10T07:21:26.869Z,2951.00
2023-05-10T07:22:26.880Z,2886.00
2023-05-10T07:23:26.884Z,2870.00
2023-05-10T07:24:26.914Z,2832.00
2023-05-10T07:25:26.976Z,2740.00
2023-05-10T07:26:26.986Z,2742.00
2023-05-10T07:27:27.076Z,2727.00
2023-05-10T07:28:27.091Z,2678.00
2023-05-10T07:29:27.166Z,2666.00
2023-05-10T07:30:27.240Z,2643.00
2023-05-10T07:31:27.292Z,2611.00
2023-05-10T07:32:27.366Z,2591.00
2023-05-10T07:33:27.321Z,2542.00
2023-05-10T07:34:27.380Z,2468.00
2023-05-10T07:35:27.456Z,2487.00
2023-05-10T07:36:27.519Z,2515.00
2023-05-10T07:37:27.547Z,2528.00
2023-05-10T07:38:27.557Z,2523.00
2023-05-10T07:39:28.368Z,2527.00
2023-05-10T07:40:27.599Z,2457.00
2023-05-10T07:41:27.665Z,2413.00
2023-05-10T07:42:28.495Z,2425.00
2023-05-10T07:43:27.710Z,2434.00
2023-05-10T07:44:27.773Z,2413.00
2023-05-10T07:45:27.861Z,2396.00
2023-05-10T07:46:27.827Z,2392.00
2023-05-10T07:47:27.891Z,2510.00
2023-05-10T07:48:27.829Z,2467.00
2023-05-10T07:49:27.848Z,2565.00
2023-05-10T07:50:27.974Z,2616.00
2023-05-10T07:51:28.023Z,2647.00
2023-05-10T07:52:28.086Z,2701.00
2023-05-10T07:53:28.136Z,2702.00
2023-05-10T07:54:28.200Z,2749.00
2023-05-10T07:55:28.268Z,2764.00
2023-05-10T07:56:28.317Z,2795.00
2023-05-10T07:57:28.374Z,2802.00
2023-05-10T07:58:28.422Z,2818.00
2023-05-10T07:59:28.440Z,2818.00
2023-05-10T08:00:28.999Z,2821.00
2023-05-10T08:01:28.526Z,2810.00
2023-05-10T08:02:28.688Z,2826.00
2023-05-10T08:03:28.736Z,2848.00
2023-05-10T08:04:28.666Z,2825.00
2023-05-10T08:05:28.754Z,2812.00
2023-05-10T08:06:28.756Z,2831.00
2023-05-10T08:07:28.816Z,2817.00
2023-05-10T08:08:28.856Z,2822.00
2023-05-10T08:09:28.914Z,2810.00
2023-05-10T08:10:28.995Z,2811.00
2023-05-10T08:11:28.939Z,2806.00
2023-05-10T08:12:28.984Z,2803.00
2023-05-10T08:13:29.038Z,2794.00
2023-05-10T08:14:29.052Z,2820.00
2023-05-10T08:15:29.053Z,2811.00
2023-05-10T08:16:29.097Z,2834.00
2023-05-10T08:17:29.167Z,2818.00
2023-05-10T08:18:29.202Z,2810.00
2023-05-10T08:19:29.167Z,2822.00
2023-05-10T08:20:29.212Z,2835.00
2023-05-10T08:21:29.231Z,2818.00
2023-05-10T08:22:29.219Z,2837.00
2023-05-10T08:23:29.252Z,2813.00
2023-05-10T08:24:29.378Z,2823.00
2023-05-10T08:25:29.310Z,2828.00
2023-05-10T08:26:29.373Z,2822.00
2023-05-10T08:27:29.337Z,2825.00
2023-05-10T08:28:29.360Z,2812.00
2023-05-10T08:29:32.765Z,2816.00
2023-05-10T08:30:30.495Z,2816.00
2023-05-10T08:31:29.401Z,2777.00
2023-05-10T08:32:29.400Z,2756.00
2023-05-10T08:33:29.379Z,2786.00
2023-05-10T08:34:29.346Z,2743.00
2023-05-10T08:35:29.521Z,2755.00
2023-05-10T08:36:29.360Z,2719.00
2023-05-10T08:37:29.353Z,2742.00
2023-05-10T08:38:29.388Z,2717.00
2023-05-10T08:39:30.711Z,2705.00
2023-05-10T08:40:29.349Z,2702.00
2023-05-10T08:41:29.418Z,2704.00
2023-05-10T08:42:29.326Z,2709.00
2023-05-10T08:43:29.359Z,2731.00
2023-05-10T08:44:29.346Z,2685.00
2023-05-10T08:45:29.364Z,2727.00
2023-05-10T08:46:29.388Z,2714.00
2023-05-10T08:47:29.403Z,2697.00
2023-05-10T08:48:29.352Z,2659.00
2023-05-10T08:49:29.345Z,2639.00
2023-05-10T08:50:29.585Z,2631.00
2023-05-10T08:51:29.420Z,2656.00
2023-05-10T08:52:29.414Z,2641.00
2023-05-10T08:53:29.423Z,2614.00
2023-05-10T08:54:29.453Z,2618.00
2023-05-10T08:55:29.491Z,2646.00
2023-05-10T08:56:29.499Z,2674.00
2023-05-10T08:57:29.536Z,2634.00
2023-05-10T08:58:29.557Z,2631.00
2023-05-10T08:59:29.578Z,2610.00
2023-05-10T09:00:29.592Z,2621.00
2023-05-10T09:01:29.750Z,2606.00
2023-05-10T09:02:29.620Z,2613.00
2023-05-10T09:03:29.652Z,2605.00
2023-05-10T09:04:29.743Z,2596.00
2023-05-10T09:05:29.733Z,2603.00
2023-05-10T09:06:29.741Z,2603.00
2023-05-10T09:07:29.804Z,2598.00
2023-05-10T09:08:29.747Z,2597.00
2023-05-10T09:09:29.746Z,2589.00
2023-05-10T09:10:29.851Z,2581.00
2023-05-10T09:11:29.803Z,2559.00
2023-05-10T09:12:29.824Z,2542.00
2023-05-10T09:13:29.828Z,2549.00
2023-05-10T09:14:29.863Z,2548.00
2023-05-10T09:15:29.901Z,2534.00
2023-05-10T09:16:29.981Z,2494.00
2023-05-10T09:17:29.998Z,2501.00
2023-05-10T09:18:29.985Z,2496.00
2023-05-10T09:19:29.950Z,2482.00
2023-05-10T09:20:30.072Z,2445.00
2023-05-10T09:21:29.931Z,2449.00
2023-05-10T09:22:29.985Z,2452.00
2023-05-10T09:23:30.010Z,2468.00
2023-05-10T09:24:30.016Z,2441.00
2023-05-10T09:25:30.036Z,2427.00
2023-05-10T09:26:30.522Z,2449.00
2023-05-10T09:27:30.082Z,2445.00
2023-05-10T09:28:30.126Z,2438.00
2023-05-10T09:29:30.155Z,2450.00
2023-05-10T09:30:30.198Z,2451.00
2023-05-10T09:31:30.682Z,2457.00
2023-05-10T09:32:30.184Z,2433.00
2023-05-10T09:33:30.196Z,2443.00
2023-05-10T09:34:30.211Z,2393.00
2023-05-10T09:35:30.276Z,2181.00
2023-05-10T09:36:31.062Z,2014.00
2023-05-10T09:37:30.284Z,1888.00
2023-05-10T09:38:30.339Z,1810.00
2023-05-10T09:39:30.378Z,1844.00
2023-05-10T09:40:30.440Z,1815.00
2023-05-10T09:41:30.547Z,1820.00
2023-05-10T09:42:30.512Z,1725.00
2023-05-10T09:43:30.499Z,1756.00
2023-05-10T09:44:30.546Z,1828.00
2023-05-10T09:45:30.594Z,2066.00
2023-05-10T09:46:30.673Z,2332.00
2023-05-10T09:47:30.704Z,2443.00
2023-05-10T09:48:30.707Z,2609.00
2023-05-10T09:49:30.714Z,2731.00
2023-05-10T09:50:30.780Z,2790.00
2023-05-10T09:51:30.841Z,2882.00
2023-05-10T09:52:30.839Z,2956.00
2023-05-10T09:53:30.920Z,3031.00
2023-05-10T09:54:31.039Z,3065.00
2023-05-10T09:55:30.930Z,3099.00
2023-05-10T09:56:30.946Z,3140.00
2023-05-10T09:57:31.908Z,3210.00
2023-05-10T09:58:30.970Z,3236.00
2023-05-10T09:59:30.983Z,3266.00
2023-05-10T10:00:31.127Z,3286.00
2023-05-10T10:01:31.106Z,3299.00
2023-05-10T10:02:31.103Z,3308.00
2023-05-10T10:03:31.115Z,3335.00
2023-05-10T10:04:31.269Z,3346.00
2023-05-10T10:05:31.204Z,3358.00
2023-05-10T10:06:31.192Z,3378.00
2023-05-10T10:07:31.245Z,3404.00
2023-05-10T10:08:31.279Z,3434.00
2023-05-10T10:09:31.340Z,3450.00
2023-05-10T10:10:31.320Z,3476.00
2023-05-10T10:11:31.535Z,3484.00
2023-05-10T10:12:31.390Z,3476.00
2023-05-10T10:13:31.426Z,3488.00
2023-05-10T10:14:31.484Z,3524.00
2023-05-10T10:15:31.520Z,3579.00
2023-05-10T10:16:32.149Z,3663.00
2023-05-10T10:17:31.598Z,3703.00
2023-05-10T10:18:31.711Z,3670.00
2023-05-10T10:19:31.651Z,3742.00
2023-05-10T10:20:31.670Z,3772.00
2023-05-10T10:21:31.700Z,3802.00
2023-05-10T10:22:31.771Z,3807.00
2023-05-10T10:23:31.801Z,3846.00
2023-05-10T10:24:31.814Z,3849.00
2023-05-10T10:25:31.838Z,3866.00
2023-05-10T10:26:32.069Z,3911.00
2023-05-10T10:27:31.910Z,3909.00
2023-05-10T10:28:31.935Z,3896.00
2023-05-10T10:29:31.938Z,3880.00
2023-05-10T10:30:31.944Z,3864.00
2023-05-10T10:31:32.048Z,3894.00
2023-05-10T10:32:32.056Z,3720.00
2023-05-10T10:33:32.138Z,3661.00
2023-05-10T10:34:32.070Z,3675.00
2023-05-10T10:35:32.074Z,3492.00
2023-05-10T10:36:32.994Z,3099.00
2023-05-10T10:37:32.144Z,2735.00
2023-05-10T10:38:32.135Z,2444.00
2023-05-10T10:39:32.182Z,2272.00
2023-05-10T10:40:34.628Z,2160.00
2023-05-10T10:41:32.529Z,2002.00
2023-05-10T10:42:32.248Z,1850.00
2023-05-10T10:43:32.197Z,1827.00
2023-05-10T10:44:32.210Z,1844.00
2023-05-10T10:45:32.259Z,1851.00
2023-05-10T10:46:32.657Z,1815.00
2023-05-10T10:47:32.325Z,1772.00
2023-05-10T10:48:32.267Z,1705.00
2023-05-10T10:49:32.220Z,1636.00
2023-05-10T10:50:32.241Z,1570.00
2023-05-10T10:51:32.400Z,1517.00
2023-05-10T10:52:33.065Z,1494.00
2023-05-10T10:53:32.377Z,1461.00
2023-05-10T10:54:32.258Z,1403.00
2023-05-10T10:55:32.244Z,1387.00
2023-05-10T10:56:32.334Z,1375.00
2023-05-10T10:57:32.254Z,1372.00
2023-05-10T10:58:32.297Z,1340.00
2023-05-10T10:59:32.299Z,1316.00
2023-05-10T11:00:32.369Z,1294.00
2023-05-10T11:01:32.343Z,1270.00
2023-05-10T11:02:32.345Z,1288.00
2023-05-10T11:03:32.297Z,1289.00
2023-05-10T11:04:32.344Z,1282.00
2023-05-10T11:05:32.347Z,1293.00
2023-05-10T11:06:32.320Z,1254.00
2023-05-10T11:07:32.571Z,1257.00
2023-05-10T11:08:32.339Z,1258.00
2023-05-10T11:09:32.375Z,1255.00
2023-05-10T11:10:32.350Z,1181.00
2023-05-10T11:11:32.341Z,1107.00
2023-05-10T11:12:32.362Z,1072.00
2023-05-10T11:13:32.457Z,1093.00
2023-05-10T11:14:32.450Z,1066.00
2023-05-10T11:15:32.392Z,983.00
2023-05-10T11:16:32.455Z,960.00
2023-05-10T11:17:32.534Z,967.00
2023-05-10T11:18:33.201Z,977.00
2023-05-10T11:19:32.436Z,1010.00
2023-05-10T11:20:32.439Z,1050.00
2023-05-10T11:21:32.476Z,1053.00
2023-05-10T11:22:32.572Z,1036.00
2023-05-10T11:23:32.446Z,952.00
2023-05-10T11:24:32.475Z,912.00
2023-05-10T11:25:32.482Z,926.00
2023-05-10T11:26:32.480Z,902.00
2023-05-10T11:27:32.577Z,1048.00
2023-05-10T11:28:32.513Z,1006.00
2023-05-10T11:29:32.609Z,1135.00
2023-05-10T11:30:33.003Z,1302.00
2023-05-10T11:31:32.523Z,1314.00
2023-05-10T11:32:32.650Z,1426.00
2023-05-10T11:33:32.555Z,1468.00
2023-05-10T11:34:32.545Z,1456.00
2023-05-10T11:35:32.611Z,1451.00
2023-05-10T11:36:32.626Z,1468.00
2023-05-10T11:37:33.091Z,1474.00
2023-05-10T11:38:32.633Z,1477.00
2023-05-10T11:39:32.667Z,1499.00
2023-05-10T11:40:32.660Z,1508.00
2023-05-10T11:41:32.707Z,1501.00
2023-05-10T11:42:32.668Z,1537.00
2023-05-10T11:43:32.666Z,1560.00
2023-05-10T11:44:32.761Z,1525.00
2023-05-10T11:45:32.742Z,1614.00
2023-05-10T11:46:32.802Z,1677.00
2023-05-10T11:47:32.750Z,1699.00
2023-05-10T11:48:32.707Z,1762.00
2023-05-10T11:49:32.760Z,1746.00
2023-05-10T11:50:32.847Z,1654.00
2023-05-10T11:51:32.875Z,1693.00
2023-05-10T11:52:32.935Z,1677.00
2023-05-10T11:53:32.983Z,1673.00
2023-05-10T11:54:33.014Z,1694.00
2023-05-10T11:55:33.119Z,1576.00
2023-05-10T11:56:33.155Z,1541.00
2023-05-10T11:57:33.173Z,1383.00
2023-05-10T11:58:33.214Z,1280.00
2023-05-10T11:59:33.270Z,1209.00
2023-05-10T12:00:33.297Z,1186.00
2023-05-10T12:01:33.372Z,1201.00
2023-05-10T12:02:33.533Z,1128.00
2023-05-10T12:03:33.584Z,1183.00
2023-05-10T12:04:33.566Z,1303.00
2023-05-10T12:05:33.533Z,1217.00
2023-05-10T12:06:33.690Z,1185.00